logo
Search for airport 
image banner adimage banner adimage banner ad
image banner ad

MRSC - Codela San Carlos

Located in San Carlos, Costa Rica

ICAO - MRSC, IATA -

Data provided by Airmate  

General information

Coordinates: N10°27'30" W84°20'53"
Elevation is 206 feet MSL.
 
View others Airports in Guanacaste

Operational data

Special qualification required
Current time UTC:
Current local time:
Weather at : MROC - Juan Santamaria Intl ( 54 km )
METAR: MROC 150900Z 12014KT CAVOK 21/11 A2997 NOSIG
TAF: MROC 150525Z 1506/1606 10015G25KT 9999 FEW045 TX31/1519Z TN21/1511Z
View NOTAMs / SUP AIP / TFR affecting this airport [VIEW]
Communications frequencies: [VIEW]

Runways:

RWY identifierQFULength (ft)Width (ft)SurfaceLDA (ft)
0100UNK
1900UNK

Airport contact information

Address: San Carlos Costa Rica

Satellite view of MRSC